sensor_id;sensor_type;location;lat;lon;timestamp;temperature;humidity
55777;DHT22;54079;44.540;18.784;2023-02-01T00:02:11;2.70;93.10
55777;DHT22;54079;44.540;18.784;2023-02-01T00:04:37;2.80;92.40
55777;DHT22;54079;44.540;18.784;2023-02-01T00:07:03;2.80;92.70
55777;DHT22;54079;44.540;18.784;2023-02-01T00:09:29;2.80;91.00
55777;DHT22;54079;44.540;18.784;2023-02-01T00:11:55;3.00;91.70
55777;DHT22;54079;44.540;18.784;2023-02-01T00:14:25;3.30;91.60
55777;DHT22;54079;44.540;18.784;2023-02-01T00:16:51;3.40;91.10
55777;DHT22;54079;44.540;18.784;2023-02-01T00:19:17;3.30;90.50
55777;DHT22;54079;44.540;18.784;2023-02-01T00:21:43;3.30;90.70
55777;DHT22;54079;44.540;18.784;2023-02-01T00:24:10;3.30;90.80
55777;DHT22;54079;44.540;18.784;2023-02-01T00:26:42;3.30;90.40
55777;DHT22;54079;44.540;18.784;2023-02-01T00:29:17;3.40;90.60
55777;DHT22;54079;44.540;18.784;2023-02-01T00:31:44;3.40;90.30
55777;DHT22;54079;44.540;18.784;2023-02-01T00:34:15;3.40;90.60
55777;DHT22;54079;44.540;18.784;2023-02-01T00:36:42;3.40;91.60
55777;DHT22;54079;44.540;18.784;2023-02-01T00:39:08;3.30;90.30
55777;DHT22;54079;44.540;18.784;2023-02-01T00:41:34;3.30;90.50
55777;DHT22;54079;44.540;18.784;2023-02-01T00:44:01;3.30;89.40
55777;DHT22;54079;44.540;18.784;2023-02-01T00:46:27;3.30;88.60
55777;DHT22;54079;44.540;18.784;2023-02-01T00:48:54;3.30;87.50
55777;DHT22;54079;44.540;18.784;2023-02-01T00:51:25;3.40;90.10
55777;DHT22;54079;44.540;18.784;2023-02-01T00:53:52;3.50;90.80
55777;DHT22;54079;44.540;18.784;2023-02-01T00:56:18;3.50;90.60
55777;DHT22;54079;44.540;18.784;2023-02-01T00:58:44;3.50;90.70
55777;DHT22;54079;44.540;18.784;2023-02-01T01:01:17;3.50;90.60
55777;DHT22;54079;44.540;18.784;2023-02-01T01:03:45;3.40;90.00
55777;DHT22;54079;44.540;18.784;2023-02-01T01:06:14;3.40;91.00
55777;DHT22;54079;44.540;18.784;2023-02-01T01:08:41;3.50;90.70
55777;DHT22;54079;44.540;18.784;2023-02-01T01:11:10;3.50;91.10
55777;DHT22;54079;44.540;18.784;2023-02-01T01:13:36;3.50;91.10
55777;DHT22;54079;44.540;18.784;2023-02-01T01:16:04;3.60;90.20
55777;DHT22;54079;44.540;18.784;2023-02-01T01:18:30;3.50;91.00
55777;DHT22;54079;44.540;18.784;2023-02-01T01:20:57;3.60;91.10
55777;DHT22;54079;44.540;18.784;2023-02-01T01:23:24;3.60;90.50
55777;DHT22;54079;44.540;18.784;2023-02-01T01:25:50;3.60;90.10
55777;DHT22;54079;44.540;18.784;2023-02-01T01:28:16;3.60;90.40
55777;DHT22;54079;44.540;18.784;2023-02-01T01:30:42;3.40;90.80
55777;DHT22;54079;44.540;18.784;2023-02-01T01:33:08;3.40;90.70
55777;DHT22;54079;44.540;18.784;2023-02-01T01:35:34;3.50;90.00
55777;DHT22;54079;44.540;18.784;2023-02-01T01:38:00;3.60;90.20
55777;DHT22;54079;44.540;18.784;2023-02-01T01:40:27;3.50;90.20
55777;DHT22;54079;44.540;18.784;2023-02-01T01:42:53;3.60;90.60
55777;DHT22;54079;44.540;18.784;2023-02-01T01:45:25;3.60;90.10
55777;DHT22;54079;44.540;18.784;2023-02-01T01:48:00;3.70;89.20
55777;DHT22;54079;44.540;18.784;2023-02-01T01:51:06;3.60;88.80
55777;DHT22;54079;44.540;18.784;2023-02-01T01:53:37;3.40;90.50
55777;DHT22;54079;44.540;18.784;2023-02-01T01:56:04;3.40;90.60
55777;DHT22;54079;44.540;18.784;2023-02-01T01:58:32;3.50;90.60
55777;DHT22;54079;44.540;18.784;2023-02-01T02:00:59;3.60;90.40
55777;DHT22;54079;44.540;18.784;2023-02-01T02:03:35;3.70;90.20
55777;DHT22;54079;44.540;18.784;2023-02-01T02:06:09;3.80;89.60
55777;DHT22;54079;44.540;18.784;2023-02-01T02:08:39;3.70;88.80
55777;DHT22;54079;44.540;18.784;2023-02-01T02:11:05;3.70;88.70
55777;DHT22;54079;44.540;18.784;2023-02-01T02:13:35;3.60;88.80
55777;DHT22;54079;44.540;18.784;2023-02-01T02:32:44;3.70;91.10
55777;DHT22;54079;44.540;18.784;2023-02-01T02:35:19;3.60;90.40
55777;DHT22;54079;44.540;18.784;2023-02-01T02:37:53;3.70;90.10
55777;DHT22;54079;44.540;18.784;2023-02-01T02:40:42;3.60;90.30
55777;DHT22;54079;44.540;18.784;2023-02-01T02:43:20;3.50;90.80
55777;DHT22;54079;44.540;18.784;2023-02-01T02:46:09;3.50;90.70
55777;DHT22;54079;44.540;18.784;2023-02-01T02:49:15;3.50;90.60
55777;DHT22;54079;44.540;18.784;2023-02-01T02:51:52;3.20;90.80
55777;DHT22;54079;44.540;18.784;2023-02-01T02:54:43;3.10;91.10
55777;DHT22;54079;44.540;18.784;2023-02-01T02:57:30;3.00;91.60
55777;DHT22;54079;44.540;18.784;2023-02-01T03:00:20;3.20;91.70
55777;DHT22;54079;44.540;18.784;2023-02-01T03:03:06;3.40;91.40
55777;DHT22;54079;44.540;18.784;2023-02-01T03:05:51;3.40;91.00
55777;DHT22;54079;44.540;18.784;2023-02-01T03:08:19;3.50;90.80
55777;DHT22;54079;44.540;18.784;2023-02-01T03:11:05;3.40;90.10
55777;DHT22;54079;44.540;18.784;2023-02-01T03:13:57;3.40;90.20
55777;DHT22;54079;44.540;18.784;2023-02-01T03:16:40;3.30;90.30
55777;DHT22;54079;44.540;18.784;2023-02-01T03:22:12;3.50;90.30
55777;DHT22;54079;44.540;18.784;2023-02-01T03:24:49;3.50;89.40
55777;DHT22;54079;44.540;18.784;2023-02-01T03:27:30;3.60;90.00
55777;DHT22;54079;44.540;18.784;2023-02-01T03:32:44;3.80;89.00
55777;DHT22;54079;44.540;18.784;2023-02-01T03:35:47;3.80;89.00
55777;DHT22;54079;44.540;18.784;2023-02-01T03:38:25;3.80;86.40
55777;DHT22;54079;44.540;18.784;2023-02-01T03:44:21;3.50;90.10
55777;DHT22;54079;44.540;18.784;2023-02-01T03:46:55;3.50;89.90
55777;DHT22;54079;44.540;18.784;2023-02-01T03:49:44;3.40;88.60
55777;DHT22;54079;44.540;18.784;2023-02-01T03:52:20;3.20;88.10
55777;DHT22;54079;44.540;18.784;2023-02-01T03:54:49;3.10;88.40
55777;DHT22;54079;44.540;18.784;2023-02-01T03:57:25;2.90;90.00
55777;DHT22;54079;44.540;18.784;2023-02-01T03:59:52;2.80;90.30
55777;DHT22;54079;44.540;18.784;2023-02-01T04:02:18;2.90;89.50
55777;DHT22;54079;44.540;18.784;2023-02-01T04:04:44;2.90;88.90
55777;DHT22;54079;44.540;18.784;2023-02-01T04:07:10;2.70;88.80
55777;DHT22;54079;44.540;18.784;2023-02-01T04:09:37;2.80;89.10
55777;DHT22;54079;44.540;18.784;2023-02-01T04:12:03;2.90;87.00
55777;DHT22;54079;44.540;18.784;2023-02-01T04:14:29;2.90;89.00
55777;DHT22;54079;44.540;18.784;2023-02-01T04:16:55;3.20;89.40
55777;DHT22;54079;44.540;18.784;2023-02-01T04:19:21;3.40;85.50
55777;DHT22;54079;44.540;18.784;2023-02-01T04:21:47;3.30;86.30
55777;DHT22;54079;44.540;18.784;2023-02-01T04:24:13;3.40;89.40
55777;DHT22;54079;44.540;18.784;2023-02-01T04:26:39;3.60;90.10
55777;DHT22;54079;44.540;18.784;2023-02-01T04:29:05;3.70;88.00
55777;DHT22;54079;44.540;18.784;2023-02-01T04:31:31;3.70;89.30
55777;DHT22;54079;44.540;18.784;2023-02-01T04:33:57;3.70;87.90
55777;DHT22;54079;44.540;18.784;2023-02-01T04:36:25;3.70;82.90
55777;DHT22;54079;44.540;18.784;2023-02-01T04:38:52;3.60;83.60
55777;DHT22;54079;44.540;18.784;2023-02-01T04:41:19;3.50;86.10
55777;DHT22;54079;44.540;18.784;2023-02-01T04:43:49;3.60;85.70
55777;DHT22;54079;44.540;18.784;2023-02-01T04:46:15;3.50;86.20
55777;DHT22;54079;44.540;18.784;2023-02-01T04:48:42;3.40;87.40
55777;DHT22;54079;44.540;18.784;2023-02-01T04:51:08;3.50;86.50
55777;DHT22;54079;44.540;18.784;2023-02-01T04:53:35;3.40;85.00
55777;DHT22;54079;44.540;18.784;2023-02-01T04:56:01;3.40;85.60
55777;DHT22;54079;44.540;18.784;2023-02-01T04:58:27;3.30;87.90
55777;DHT22;54079;44.540;18.784;2023-02-01T05:00:53;3.40;88.70
55777;DHT22;54079;44.540;18.784;2023-02-01T05:03:19;3.30;86.80
55777;DHT22;54079;44.540;18.784;2023-02-01T05:05:47;3.40;88.30
55777;DHT22;54079;44.540;18.784;2023-02-01T05:08:14;3.40;86.50
55777;DHT22;54079;44.540;18.784;2023-02-01T05:10:40;3.50;87.50
55777;DHT22;54079;44.540;18.784;2023-02-01T05:13:07;3.40;85.60
55777;DHT22;54079;44.540;18.784;2023-02-01T05:15:51;3.30;87.40
55777;DHT22;54079;44.540;18.784;2023-02-01T05:18:17;3.10;88.80
55777;DHT22;54079;44.540;18.784;2023-02-01T05:20:43;3.00;88.20
55777;DHT22;54079;44.540;18.784;2023-02-01T05:23:09;2.60;88.60
55777;DHT22;54079;44.540;18.784;2023-02-01T05:25:34;2.60;90.10
55777;DHT22;54079;44.540;18.784;2023-02-01T05:28:00;2.50;90.80
55777;DHT22;54079;44.540;18.784;2023-02-01T05:30:26;2.20;90.80
55777;DHT22;54079;44.540;18.784;2023-02-01T05:32:53;2.20;90.80
55777;DHT22;54079;44.540;18.784;2023-02-01T05:35:19;2.20;90.60
55777;DHT22;54079;44.540;18.784;2023-02-01T05:37:45;2.30;91.10
55777;DHT22;54079;44.540;18.784;2023-02-01T05:40:11;2.40;90.10
55777;DHT22;54079;44.540;18.784;2023-02-01T05:42:37;2.60;87.40
55777;DHT22;54079;44.540;18.784;2023-02-01T05:47:50;3.00;87.50
55777;DHT22;54079;44.540;18.784;2023-02-01T05:50:16;3.10;87.00
55777;DHT22;54079;44.540;18.784;2023-02-01T05:52:42;3.20;86.20
55777;DHT22;54079;44.540;18.784;2023-02-01T05:55:08;3.10;86.00
55777;DHT22;54079;44.540;18.784;2023-02-01T05:57:34;3.00;87.40
55777;DHT22;54079;44.540;18.784;2023-02-01T06:00:01;3.10;86.40
55777;DHT22;54079;44.540;18.784;2023-02-01T06:02:27;3.30;84.20
55777;DHT22;54079;44.540;18.784;2023-02-01T06:04:53;3.30;83.00
55777;DHT22;54079;44.540;18.784;2023-02-01T06:07:18;3.40;84.00
55777;DHT22;54079;44.540;18.784;2023-02-01T06:09:44;3.50;85.60
55777;DHT22;54079;44.540;18.784;2023-02-01T06:12:10;3.40;86.10
55777;DHT22;54079;44.540;18.784;2023-02-01T06:14:36;3.40;86.30
55777;DHT22;54079;44.540;18.784;2023-02-01T06:17:02;3.50;82.40
55777;DHT22;54079;44.540;18.784;2023-02-01T06:19:28;3.50;81.90
55777;DHT22;54079;44.540;18.784;2023-02-01T06:21:54;3.60;83.50
55777;DHT22;54079;44.540;18.784;2023-02-01T06:24:20;3.70;85.90
55777;DHT22;54079;44.540;18.784;2023-02-01T06:26:46;3.80;84.50
55777;DHT22;54079;44.540;18.784;2023-02-01T06:29:12;3.90;84.20
55777;DHT22;54079;44.540;18.784;2023-02-01T06:31:38;3.90;84.70
55777;DHT22;54079;44.540;18.784;2023-02-01T06:34:05;3.90;81.90
55777;DHT22;54079;44.540;18.784;2023-02-01T06:36:31;3.70;80.90
55777;DHT22;54079;44.540;18.784;2023-02-01T06:38:57;3.80;79.70
55777;DHT22;54079;44.540;18.784;2023-02-01T06:41:25;3.80;79.30
55777;DHT22;54079;44.540;18.784;2023-02-01T06:43:51;4.10;77.20
55777;DHT22;54079;44.540;18.784;2023-02-01T06:46:17;4.20;80.50
55777;DHT22;54079;44.540;18.784;2023-02-01T06:48:43;4.40;80.60
55777;DHT22;54079;44.540;18.784;2023-02-01T06:51:29;4.50;81.60
55777;DHT22;54079;44.540;18.784;2023-02-01T06:53:56;4.50;82.00
55777;DHT22;54079;44.540;18.784;2023-02-01T06:56:22;4.50;78.20
55777;DHT22;54079;44.540;18.784;2023-02-01T06:58:48;4.60;80.20
55777;DHT22;54079;44.540;18.784;2023-02-01T07:01:15;4.80;81.70
55777;DHT22;54079;44.540;18.784;2023-02-01T07:03:42;4.90;79.30
55777;DHT22;54079;44.540;18.784;2023-02-01T07:06:09;4.90;80.40
55777;DHT22;54079;44.540;18.784;2023-02-01T07:08:37;5.10;79.80
55777;DHT22;54079;44.540;18.784;2023-02-01T07:11:08;5.20;79.80
55777;DHT22;54079;44.540;18.784;2023-02-01T07:13:35;5.40;80.00
55777;DHT22;54079;44.540;18.784;2023-02-01T07:16:06;5.40;82.10
55777;DHT22;54079;44.540;18.784;2023-02-01T07:18:32;5.50;81.80
55777;DHT22;54079;44.540;18.784;2023-02-01T07:20:59;5.70;81.70
55777;DHT22;54079;44.540;18.784;2023-02-01T07:23:27;5.70;82.70
55777;DHT22;54079;44.540;18.784;2023-02-01T07:25:55;5.90;82.00
55777;DHT22;54079;44.540;18.784;2023-02-01T07:28:21;6.00;81.10
55777;DHT22;54079;44.540;18.784;2023-02-01T07:30:47;6.10;80.50
55777;DHT22;54079;44.540;18.784;2023-02-01T07:33:23;6.10;79.80
55777;DHT22;54079;44.540;18.784;2023-02-01T07:35:51;6.00;79.20
55777;DHT22;54079;44.540;18.784;2023-02-01T07:38:17;5.90;79.20
55777;DHT22;54079;44.540;18.784;2023-02-01T07:40:44;5.60;79.20
55777;DHT22;54079;44.540;18.784;2023-02-01T07:43:10;5.40;78.80
55777;DHT22;54079;44.540;18.784;2023-02-01T07:45:36;6.30;80.00
55777;DHT22;54079;44.540;18.784;2023-02-01T07:48:03;7.30;77.30
55777;DHT22;54079;44.540;18.784;2023-02-01T07:50:30;8.30;73.00
55777;DHT22;54079;44.540;18.784;2023-02-01T07:52:59;9.70;68.50
55777;DHT22;54079;44.540;18.784;2023-02-01T07:55:25;10.70;65.80
55777;DHT22;54079;44.540;18.784;2023-02-01T07:57:51;11.20;63.70
55777;DHT22;54079;44.540;18.784;2023-02-01T08:00:18;11.80;62.00
55777;DHT22;54079;44.540;18.784;2023-02-01T08:03:04;11.60;60.90
55777;DHT22;54079;44.540;18.784;2023-02-01T08:05:30;11.50;60.80
55777;DHT22;54079;44.540;18.784;2023-02-01T08:07:55;11.20;60.50
55777;DHT22;54079;44.540;18.784;2023-02-01T08:10:22;10.90;58.90
55777;DHT22;54079;44.540;18.784;2023-02-01T08:12:48;10.80;60.00
55777;DHT22;54079;44.540;18.784;2023-02-01T08:15:17;10.70;61.60
55777;DHT22;54079;44.540;18.784;2023-02-01T08:17:50;10.60;62.70
55777;DHT22;54079;44.540;18.784;2023-02-01T08:20:18;10.40;59.80
55777;DHT22;54079;44.540;18.784;2023-02-01T08:22:44;10.20;59.20
55777;DHT22;54079;44.540;18.784;2023-02-01T08:25:11;9.80;59.70
55777;DHT22;54079;44.540;18.784;2023-02-01T08:27:37;10.40;58.00
55777;DHT22;54079;44.540;18.784;2023-02-01T08:30:04;11.30;55.60
55777;DHT22;54079;44.540;18.784;2023-02-01T08:32:33;11.90;55.00
55777;DHT22;54079;44.540;18.784;2023-02-01T08:34:59;12.80;53.80
55777;DHT22;54079;44.540;18.784;2023-02-01T08:37:25;13.80;55.50
55777;DHT22;54079;44.540;18.784;2023-02-01T08:39:51;14.60;56.20
55777;DHT22;54079;44.540;18.784;2023-02-01T08:42:17;15.20;55.80
55777;DHT22;54079;44.540;18.784;2023-02-01T08:45:02;15.30;54.60
55777;DHT22;54079;44.540;18.784;2023-02-01T08:47:29;15.80;53.00
55777;DHT22;54079;44.540;18.784;2023-02-01T08:49:55;16.10;51.30
55777;DHT22;54079;44.540;18.784;2023-02-01T08:52:22;16.30;52.80
55777;DHT22;54079;44.540;18.784;2023-02-01T08:54:48;16.40;50.50
55777;DHT22;54079;44.540;18.784;2023-02-01T08:57:14;16.50;48.80
55777;DHT22;54079;44.540;18.784;2023-02-01T08:59:40;17.10;47.40
55777;DHT22;54079;44.540;18.784;2023-02-01T09:02:08;17.50;47.10
55777;DHT22;54079;44.540;18.784;2023-02-01T09:04:34;18.20;46.60
55777;DHT22;54079;44.540;18.784;2023-02-01T09:07:00;18.10;47.30
55777;DHT22;54079;44.540;18.784;2023-02-01T09:09:27;18.30;48.50
55777;DHT22;54079;44.540;18.784;2023-02-01T09:11:53;17.90;49.20
55777;DHT22;54079;44.540;18.784;2023-02-01T09:14:19;17.90;48.80
55777;DHT22;54079;44.540;18.784;2023-02-01T09:16:45;17.80;48.20
55777;DHT22;54079;44.540;18.784;2023-02-01T09:19:11;17.50;48.20
55777;DHT22;54079;44.540;18.784;2023-02-01T09:21:37;17.60;47.90
55777;DHT22;54079;44.540;18.784;2023-02-01T09:24:03;18.00;47.00
55777;DHT22;54079;44.540;18.784;2023-02-01T09:26:29;18.20;46.60
55777;DHT22;54079;44.540;18.784;2023-02-01T09:28:55;18.20;45.30
55777;DHT22;54079;44.540;18.784;2023-02-01T09:31:21;18.40;43.30
55777;DHT22;54079;44.540;18.784;2023-02-01T09:33:47;18.50;44.40
55777;DHT22;54079;44.540;18.784;2023-02-01T09:36:13;18.80;42.10
55777;DHT22;54079;44.540;18.784;2023-02-01T09:38:39;18.40;44.30
55777;DHT22;54079;44.540;18.784;2023-02-01T09:41:43;18.40;44.70
55777;DHT22;54079;44.540;18.784;2023-02-01T09:44:20;18.20;44.10
55777;DHT22;54079;44.540;18.784;2023-02-01T09:46:49;17.30;44.00
55777;DHT22;54079;44.540;18.784;2023-02-01T09:49:30;16.50;47.40
55777;DHT22;54079;44.540;18.784;2023-02-01T09:51:57;15.60;48.70
55777;DHT22;54079;44.540;18.784;2023-02-01T09:54:27;15.10;50.10
55777;DHT22;54079;44.540;18.784;2023-02-01T09:57:14;14.60;52.30
55777;DHT22;54079;44.540;18.784;2023-02-01T09:59:46;14.10;49.70
55777;DHT22;54079;44.540;18.784;2023-02-01T10:02:24;13.70;52.90
55777;DHT22;54079;44.540;18.784;2023-02-01T10:04:55;13.60;52.40
55777;DHT22;54079;44.540;18.784;2023-02-01T10:10:12;13.80;51.70
55777;DHT22;54079;44.540;18.784;2023-02-01T10:13:59;14.10;50.40
55777;DHT22;54079;44.540;18.784;2023-02-01T10:18:37;14.30;47.30
55777;DHT22;54079;44.540;18.784;2023-02-01T10:21:47;14.20;49.20
55777;DHT22;54079;44.540;18.784;2023-02-01T10:24:25;14.10;47.40
55777;DHT22;54079;44.540;18.784;2023-02-01T10:27:18;14.30;44.40
55777;DHT22;54079;44.540;18.784;2023-02-01T10:29:48;14.20;48.00
55777;DHT22;54079;44.540;18.784;2023-02-01T10:32:20;14.00;48.90
55777;DHT22;54079;44.540;18.784;2023-02-01T10:34:55;13.90;47.30
55777;DHT22;54079;44.540;18.784;2023-02-01T10:37:30;14.00;48.20
55777;DHT22;54079;44.540;18.784;2023-02-01T10:40:18;14.00;49.30
55777;DHT22;54079;44.540;18.784;2023-02-01T10:42:47;13.90;49.30
55777;DHT22;54079;44.540;18.784;2023-02-01T10:45:17;13.90;49.70
55777;DHT22;54079;44.540;18.784;2023-02-01T10:47:44;14.00;48.80
55777;DHT22;54079;44.540;18.784;2023-02-01T10:52:56;14.00;46.60
55777;DHT22;54079;44.540;18.784;2023-02-01T10:58:02;13.80;48.20
55777;DHT22;54079;44.540;18.784;2023-02-01T11:00:38;13.90;49.30
55777;DHT22;54079;44.540;18.784;2023-02-01T11:03:41;13.60;50.70
55777;DHT22;54079;44.540;18.784;2023-02-01T11:06:18;13.60;49.00
55777;DHT22;54079;44.540;18.784;2023-02-01T11:08:53;13.60;48.80
55777;DHT22;54079;44.540;18.784;2023-02-01T11:11:20;13.40;49.30
55777;DHT22;54079;44.540;18.784;2023-02-01T11:13:53;13.30;49.60
55777;DHT22;54079;44.540;18.784;2023-02-01T11:16:19;13.20;52.40
55777;DHT22;54079;44.540;18.784;2023-02-01T11:18:45;13.30;52.00
55777;DHT22;54079;44.540;18.784;2023-02-01T11:21:18;13.40;50.50
55777;DHT22;54079;44.540;18.784;2023-02-01T11:23:45;13.60;52.00
55777;DHT22;54079;44.540;18.784;2023-02-01T11:26:23;13.70;52.20
55777;DHT22;54079;44.540;18.784;2023-02-01T11:28:59;13.90;50.80
55777;DHT22;54079;44.540;18.784;2023-02-01T11:31:27;14.10;51.80
55777;DHT22;54079;44.540;18.784;2023-02-01T11:34:42;14.30;52.80
55777;DHT22;54079;44.540;18.784;2023-02-01T11:37:00;14.50;51.00
55777;DHT22;54079;44.540;18.784;2023-02-01T11:39:30;14.30;51.00
55777;DHT22;54079;44.540;18.784;2023-02-01T11:42:14;14.20;50.00
55777;DHT22;54079;44.540;18.784;2023-02-01T11:44:45;14.40;49.50
55777;DHT22;54079;44.540;18.784;2023-02-01T11:49:46;14.50;51.20
55777;DHT22;54079;44.540;18.784;2023-02-01T11:52:24;14.20;51.80
55777;DHT22;54079;44.540;18.784;2023-02-01T11:55:06;14.20;52.80
55777;DHT22;54079;44.540;18.784;2023-02-01T11:57:41;14.20;51.20
55777;DHT22;54079;44.540;18.784;2023-02-01T12:06:11;14.40;53.40
55777;DHT22;54079;44.540;18.784;2023-02-01T12:17:22;14.40;51.40
55777;DHT22;54079;44.540;18.784;2023-02-01T12:26:20;14.20;52.10
55777;DHT22;54079;44.540;18.784;2023-02-01T12:43:22;13.60;53.40
55777;DHT22;54079;44.540;18.784;2023-02-01T12:46:12;13.60;51.60
55777;DHT22;54079;44.540;18.784;2023-02-01T12:48:48;13.50;51.00
55777;DHT22;54079;44.540;18.784;2023-02-01T12:51:19;13.50;51.70
55777;DHT22;54079;44.540;18.784;2023-02-01T12:54:42;13.40;51.70
55777;DHT22;54079;44.540;18.784;2023-02-01T12:56:55;13.30;51.60
55777;DHT22;54079;44.540;18.784;2023-02-01T12:59:26;13.30;51.20
55777;DHT22;54079;44.540;18.784;2023-02-01T13:01:59;13.20;50.90
55777;DHT22;54079;44.540;18.784;2023-02-01T13:07:18;13.10;51.20
55777;DHT22;54079;44.540;18.784;2023-02-01T13:12:43;13.10;52.90
55777;DHT22;54079;44.540;18.784;2023-02-01T13:15:20;13.00;53.00
55777;DHT22;54079;44.540;18.784;2023-02-01T13:17:49;12.80;52.80
55777;DHT22;54079;44.540;18.784;2023-02-01T13:20:40;12.80;55.10
55777;DHT22;54079;44.540;18.784;2023-02-01T13:23:34;12.70;54.00
55777;DHT22;54079;44.540;18.784;2023-02-01T13:26:01;12.70;54.50
55777;DHT22;54079;44.540;18.784;2023-02-01T13:28:49;12.60;52.90
55777;DHT22;54079;44.540;18.784;2023-02-01T13:36:56;12.80;52.90
55777;DHT22;54079;44.540;18.784;2023-02-01T13:42:34;12.70;58.70
55777;DHT22;54079;44.540;18.784;2023-02-01T13:45:04;12.60;55.90
55777;DHT22;54079;44.540;18.784;2023-02-01T13:47:35;12.70;56.00
55777;DHT22;54079;44.540;18.784;2023-02-01T13:50:19;12.60;56.30
55777;DHT22;54079;44.540;18.784;2023-02-01T13:52:59;12.60;56.10
55777;DHT22;54079;44.540;18.784;2023-02-01T13:55:40;12.50;57.10
55777;DHT22;54079;44.540;18.784;2023-02-01T13:58:17;12.60;56.40
55777;DHT22;54079;44.540;18.784;2023-02-01T14:00:44;12.40;57.40
55777;DHT22;54079;44.540;18.784;2023-02-01T14:03:22;12.30;57.60
55777;DHT22;54079;44.540;18.784;2023-02-01T14:08:37;12.20;55.20
55777;DHT22;54079;44.540;18.784;2023-02-01T14:11:03;12.30;55.00
55777;DHT22;54079;44.540;18.784;2023-02-01T14:13:35;12.40;53.70
55777;DHT22;54079;44.540;18.784;2023-02-01T14:21:28;12.20;55.40
55777;DHT22;54079;44.540;18.784;2023-02-01T14:23:58;12.10;55.50
55777;DHT22;54079;44.540;18.784;2023-02-01T14:29:01;12.00;56.10
55777;DHT22;54079;44.540;18.784;2023-02-01T14:31:38;11.90;56.30
55777;DHT22;54079;44.540;18.784;2023-02-01T14:34:13;11.80;58.00
55777;DHT22;54079;44.540;18.784;2023-02-01T14:36:50;11.60;56.90
55777;DHT22;54079;44.540;18.784;2023-02-01T14:39:35;11.50;55.90
55777;DHT22;54079;44.540;18.784;2023-02-01T14:42:14;11.40;57.20
55777;DHT22;54079;44.540;18.784;2023-02-01T14:44:41;11.40;56.70
55777;DHT22;54079;44.540;18.784;2023-02-01T14:47:28;11.30;57.90
55777;DHT22;54079;44.540;18.784;2023-02-01T14:52:36;10.90;57.30
55777;DHT22;54079;44.540;18.784;2023-02-01T14:55:33;10.70;56.80
55777;DHT22;54079;44.540;18.784;2023-02-01T14:57:58;10.60;56.90
55777;DHT22;54079;44.540;18.784;2023-02-01T15:00:29;10.40;56.90
55777;DHT22;54079;44.540;18.784;2023-02-01T15:03:24;10.30;56.50
55777;DHT22;54079;44.540;18.784;2023-02-01T15:05:53;10.30;56.60
55777;DHT22;54079;44.540;18.784;2023-02-01T15:08:25;10.30;57.50
55777;DHT22;54079;44.540;18.784;2023-02-01T15:10:53;10.20;58.10
55777;DHT22;54079;44.540;18.784;2023-02-01T15:13:25;10.00;56.70
55777;DHT22;54079;44.540;18.784;2023-02-01T15:16:11;10.00;56.50
55777;DHT22;54079;44.540;18.784;2023-02-01T15:18:37;9.90;55.80
55777;DHT22;54079;44.540;18.784;2023-02-01T15:21:05;9.80;56.20
55777;DHT22;54079;44.540;18.784;2023-02-01T15:23:31;9.70;56.90
55777;DHT22;54079;44.540;18.784;2023-02-01T15:25:58;9.60;57.00
55777;DHT22;54079;44.540;18.784;2023-02-01T15:28:25;9.50;56.50
55777;DHT22;54079;44.540;18.784;2023-02-01T15:31:01;9.40;56.30
55777;DHT22;54079;44.540;18.784;2023-02-01T15:33:29;9.20;57.30
55777;DHT22;54079;44.540;18.784;2023-02-01T15:36:10;9.00;59.30
55777;DHT22;54079;44.540;18.784;2023-02-01T15:38:42;8.90;59.90
55777;DHT22;54079;44.540;18.784;2023-02-01T15:41:15;8.80;59.90
55777;DHT22;54079;44.540;18.784;2023-02-01T15:46:17;8.70;60.50
55777;DHT22;54079;44.540;18.784;2023-02-01T15:48:49;8.60;61.00
55777;DHT22;54079;44.540;18.784;2023-02-01T15:51:20;8.60;60.30
55777;DHT22;54079;44.540;18.784;2023-02-01T15:53:57;8.50;60.60
55777;DHT22;54079;44.540;18.784;2023-02-01T15:56:29;8.50;60.80
55777;DHT22;54079;44.540;18.784;2023-02-01T15:59:00;8.50;60.80
55777;DHT22;54079;44.540;18.784;2023-02-01T16:01:27;8.50;61.20
55777;DHT22;54079;44.540;18.784;2023-02-01T16:04:29;8.40;61.50
55777;DHT22;54079;44.540;18.784;2023-02-01T16:06:58;8.40;61.90
55777;DHT22;54079;44.540;18.784;2023-02-01T16:09:38;8.40;63.50
55777;DHT22;54079;44.540;18.784;2023-02-01T16:12:45;8.20;63.30
55777;DHT22;54079;44.540;18.784;2023-02-01T16:15:12;8.00;64.70
55777;DHT22;54079;44.540;18.784;2023-02-01T16:17:38;7.80;67.30
55777;DHT22;54079;44.540;18.784;2023-02-01T16:20:04;7.60;67.40
55777;DHT22;54079;44.540;18.784;2023-02-01T16:22:30;7.70;68.30
55777;DHT22;54079;44.540;18.784;2023-02-01T16:24:56;7.50;67.70
55777;DHT22;54079;44.540;18.784;2023-02-01T16:27:22;7.60;66.70
55777;DHT22;54079;44.540;18.784;2023-02-01T16:29:49;7.50;68.40
55777;DHT22;54079;44.540;18.784;2023-02-01T16:32:19;7.40;68.30
55777;DHT22;54079;44.540;18.784;2023-02-01T16:34:46;7.20;69.70
55777;DHT22;54079;44.540;18.784;2023-02-01T16:37:16;7.10;69.70
55777;DHT22;54079;44.540;18.784;2023-02-01T16:39:44;6.80;69.90
55777;DHT22;54079;44.540;18.784;2023-02-01T16:42:12;6.90;67.40
55777;DHT22;54079;44.540;18.784;2023-02-01T16:44:38;7.00;66.90
55777;DHT22;54079;44.540;18.784;2023-02-01T16:47:17;7.10;65.70
55777;DHT22;54079;44.540;18.784;2023-02-01T16:49:44;7.10;66.90
55777;DHT22;54079;44.540;18.784;2023-02-01T16:52:22;7.10;66.10
55777;DHT22;54079;44.540;18.784;2023-02-01T16:54:49;7.00;66.30
55777;DHT22;54079;44.540;18.784;2023-02-01T16:57:17;7.10;66.40
55777;DHT22;54079;44.540;18.784;2023-02-01T16:59:43;7.10;65.80
55777;DHT22;54079;44.540;18.784;2023-02-01T17:02:18;7.10;65.30
55777;DHT22;54079;44.540;18.784;2023-02-01T17:04:49;7.20;65.60
55777;DHT22;54079;44.540;18.784;2023-02-01T17:07:17;7.20;67.60
55777;DHT22;54079;44.540;18.784;2023-02-01T17:09:44;7.10;65.30
55777;DHT22;54079;44.540;18.784;2023-02-01T17:12:30;7.30;67.00
55777;DHT22;54079;44.540;18.784;2023-02-01T17:14:57;7.30;65.20
55777;DHT22;54079;44.540;18.784;2023-02-01T17:17:25;7.10;68.30
55777;DHT22;54079;44.540;18.784;2023-02-01T17:19:53;7.20;67.30
55777;DHT22;54079;44.540;18.784;2023-02-01T17:22:20;7.10;67.80
55777;DHT22;54079;44.540;18.784;2023-02-01T17:24:46;7.20;65.60
55777;DHT22;54079;44.540;18.784;2023-02-01T17:27:12;7.30;65.80
55777;DHT22;54079;44.540;18.784;2023-02-01T17:29:38;7.10;68.80
55777;DHT22;54079;44.540;18.784;2023-02-01T17:32:05;7.00;68.30
55777;DHT22;54079;44.540;18.784;2023-02-01T17:34:39;7.00;66.90
55777;DHT22;54079;44.540;18.784;2023-02-01T17:37:05;6.90;69.10
55777;DHT22;54079;44.540;18.784;2023-02-01T17:39:40;6.90;69.90